Spirit Of Saint Louis, MO

11:33 PM CDT on June 01, 2015 (GMT -0500)
Washington | | Change Station
CLOSE
Current Station
Airport
Location: Washington,
Elevation: 486 ft
Nearby Weather Stations
Active Advisory: Flood Warning

Elev 486 ft 38.59 °N, 90.99 °W | Updated 58 minutes ago

Overcast
Overcast
59 °F
Feels Like 59 °F
N
0
Wind Variable Wind from North

Today
High -- | Low -- °F
--% Chance of Precip.
Yesterday
High -- | Low -- °F
Precip. -- in
5:39 AM 8:21 PM
Full, 100% visible
Pressure 30.14 in
Visibility 8.0 miles
Clouds Mostly Cloudy 3800 ft
Overcast 7000 ft
Dew Point 57 °F
Humidity 94%
Rainfall 0.00 in
Snow Depth Not available.
UV 0 out of 12
Pollen 7.50 out of 12
Air Quality Not available.
Flu Activity Sporadic
METAR KFYG 020335Z AUTO 00000KT 8SM BKN038 OVC070 15/14 A3014 RMK AO2

More Conditions Fewer Conditions

Pressure 30.14 in
Visibility 8.0 miles
Clouds Mostly Cloudy 3800 ft
Overcast 7000 ft
Dew Point 57 °F
Humidity 94%
Rainfall 0.00 in
Snow Depth Not available.
UV 0 out of 12
Pollen 7.50 out of 12
Air Quality Not available.
Flu Activity Sporadic
METAR KFYG 020335Z AUTO 00000KT 8SM BKN038 OVC070 15/14 A3014 RMK AO2

More Conditions Fewer Conditions

10-Day Weather Forecast

Almanac

Astronomy

Jun. 01, 2015 Rise Set
Actual Time
Civil Twilight
Nautical Twilight
Astronomical Twilight
Moon
Length of Visible Light
Length of Day
Tomorrow will be .
, % of the Moon is Illuminated

Today's Extremes

State Highs State Lows

Community

WunderPhotos

Upload Photos

1,825,908 photos uploaded!

WunderBlogs® & News

Nearby

Air Quality

  Air Quality AQ Index Pollutant
Not available.

Snow Depth

Station Depth Elevation

Earthquake Activity

City Distance Mag. Time & Date
Minimum magnitude displayed is 2.5.

Coastal Water Temperatures

Place Temperature

Stations

Nearby Weather Stations

Station Location Temp. Windchill Dew Point Humidity Wind Precip. Elev Updated Type
                   
Flood Warning
Statement as of 10:16 AM CDT on June 01, 2015

The Flood Warning continues for
the Missouri River at St. Charles
* until tonight.
* At 10 am Monday the stage was 25.8 feet.
* Flood stage is 25.0 feet.
* Minor flooding is occurring and minor flooding is forecast.
* Forecast: the river is forecast to fall below flood stage tonight.

                   Fld latest 7 a.M. Forecast
location stg obs stg 06/02 06/03 06/04 06/05 06/06

Missouri River
St. Charles 25.0 25.81 24.6 23.2 21.4 20.0 18.8


Lat... Lon 3865 9078 3859 9072 3881 9017 3886 9018 3891 9033